Time;durP1;ratioP1;P1;durP2;ratioP2;P2;SDS_P1;SDS_P2;PMS_P1;PMS_P2;Temp;Humidity;BMP_temperature;BMP_pressure;BME280_temperature;BME280_humidity;BME280_pressure;Samples;Min_cycle;Max_cycle;Signal;HPM_P1;HPM_P2
2023/10/27 00:02:08;;;;;;;32.60;14.30;;;;;;;9.68;100.00;98279.66;110805;1271;22334;-79
2023/10/27 00:04:36;;;;;;;32.60;12.60;;;;;;;9.66;100.00;98273.56;110834;1271;22171;-79
2023/10/27 00:07:04;;;;;;;26.80;10.00;;;;;;;9.64;100.00;98278.23;110809;1271;22993;-79
2023/10/27 00:09:35;;;;;;;26.50;8.80;;;;;;;9.63;100.00;98273.23;110818;1269;22429;-79
2023/10/27 00:12:04;;;;;;;22.60;8.10;;;;;;;9.63;100.00;98268.02;110802;1271;22363;-79
2023/10/27 00:14:33;;;;;;;24.60;8.70;;;;;;;9.63;100.00;98265.48;110810;1271;22248;-79
2023/10/27 00:17:01;;;;;;;28.50;9.00;;;;;;;9.62;100.00;98259.02;110687;1271;203109;-79
2023/10/27 00:19:29;;;;;;;23.30;8.60;;;;;;;9.62;100.00;98257.59;110726;1271;22380;-79
2023/10/27 00:21:57;;;;;;;24.20;8.90;;;;;;;9.61;100.00;98258.67;110822;1271;22168;-78
2023/10/27 00:24:26;;;;;;;25.20;8.90;;;;;;;9.62;100.00;98258.16;110835;1269;22194;-79
2023/10/27 00:26:54;;;;;;;30.30;10.80;;;;;;;9.63;100.00;98256.98;110828;1271;22284;-79
2023/10/27 00:29:22;;;;;;;27.00;10.10;;;;;;;9.64;100.00;98255.61;110843;1271;22352;-79
2023/10/27 00:31:50;;;;;;;32.20;10.70;;;;;;;9.65;100.00;98253.52;110702;1271;22297;-79
2023/10/27 00:34:18;;;;;;;26.50;9.90;;;;;;;9.66;100.00;98253.90;110821;1271;22159;-78
2023/10/27 00:36:47;;;;;;;27.00;10.00;;;;;;;9.68;100.00;98251.91;110794;1271;22159;-79
2023/10/27 00:39:16;;;;;;;21.50;7.90;;;;;;;9.70;100.00;98252.66;110832;1271;22333;-79
2023/10/27 00:41:44;;;;;;;18.10;7.00;;;;;;;9.70;100.00;98245.56;110806;1271;22440;-79
2023/10/27 00:44:12;;;;;;;18.00;6.60;;;;;;;9.71;100.00;98245.85;110820;1271;22474;-79
2023/10/27 00:46:40;;;;;;;22.40;7.10;;;;;;;9.70;100.00;98248.91;110836;1271;22347;-79
2023/10/27 00:49:08;;;;;;;19.30;6.90;;;;;;;9.69;100.00;98251.85;110820;1271;22169;-78
2023/10/27 00:51:36;;;;;;;22.70;8.20;;;;;;;9.67;100.00;98250.00;110810;1271;23076;-79
2023/10/27 00:54:08;;;;;;;23.70;8.30;;;;;;;9.64;100.00;98244.66;110833;1271;22395;-78
2023/10/27 00:56:37;;;;;;;27.90;11.00;;;;;;;9.62;100.00;98244.12;109977;1271;22546;-78
2023/10/27 00:59:06;;;;;;;34.80;15.30;;;;;;;9.59;100.00;98235.02;109419;1271;22517;-78
2023/10/27 01:01:35;;;;;;;36.60;16.10;;;;;;;9.56;100.00;98235.05;109592;1269;22539;-78
2023/10/27 01:04:03;;;;;;;37.50;15.90;;;;;;;9.53;100.00;98234.31;108287;1269;23047;-78
2023/10/27 01:06:31;;;;;;;39.50;16.90;;;;;;;9.50;100.00;98226.70;107965;1271;22547;-78
2023/10/27 01:08:59;;;;;;;38.20;17.20;;;;;;;9.46;100.00;98219.85;107898;1271;24077;-77
2023/10/27 01:11:28;;;;;;;44.70;20.00;;;;;;;9.42;100.00;98213.86;107976;1271;25265;-77
2023/10/27 01:13:56;;;;;;;48.50;21.00;;;;;;;9.37;100.00;98208.59;107998;1271;25521;-78
2023/10/27 01:16:24;;;;;;;43.00;19.10;;;;;;;9.33;100.00;98208.27;107973;1271;22536;-78
2023/10/27 01:18:53;;;;;;;53.70;23.50;;;;;;;9.28;100.00;98207.24;107908;1271;22511;-78
2023/10/27 01:21:21;;;;;;;53.00;21.90;;;;;;;9.24;100.00;98204.66;107936;1271;22526;-77
2023/10/27 01:23:49;;;;;;;47.10;22.20;;;;;;;9.20;100.00;98195.83;108065;1271;25237;-77
2023/10/27 01:26:17;;;;;;;44.10;19.20;;;;;;;9.14;100.00;98193.23;107973;1271;24157;-78
2023/10/27 01:28:45;;;;;;;36.70;16.80;;;;;;;9.11;100.00;98194.27;107985;1271;24334;-78
2023/10/27 01:31:13;;;;;;;36.50;15.50;;;;;;;9.06;100.00;98189.52;107991;1271;22542;-78
2023/10/27 01:33:41;;;;;;;34.10;13.00;;;;;;;8.99;99.99;98189.81;108000;1271;22662;-78
2023/10/27 01:36:10;;;;;;;38.30;15.90;;;;;;;8.92;99.97;98185.58;108010;1269;22548;-78
2023/10/27 01:38:38;;;;;;;34.20;13.40;;;;;;;8.84;99.81;98179.30;107965;1271;23268;-78
2023/10/27 01:41:06;;;;;;;33.50;13.40;;;;;;;8.76;99.77;98176.27;108047;1271;22541;-78
2023/10/27 01:43:34;;;;;;;32.00;11.40;;;;;;;8.71;99.99;98175.77;107991;1271;25331;-78
2023/10/27 01:46:02;;;;;;;24.50;8.90;;;;;;;8.66;99.84;98177.46;108105;1271;22540;-78
2023/10/27 01:48:31;;;;;;;28.00;9.50;;;;;;;8.61;99.87;98175.36;107929;1271;24055;-78
2023/10/27 01:51:03;;;;;;;21.30;8.90;;;;;;;8.53;99.67;98173.19;107956;1271;22523;-77
2023/10/27 01:53:33;;;;;;;23.10;9.20;;;;;;;8.46;99.59;98173.73;107967;1271;22559;-78
2023/10/27 01:56:01;;;;;;;22.80;7.90;;;;;;;8.40;99.22;98174.13;107975;1271;22476;-78
2023/10/27 01:58:29;;;;;;;27.00;9.20;;;;;;;8.34;99.11;98172.39;107867;1269;22524;-78
2023/10/27 02:00:58;;;;;;;25.70;9.90;;;;;;;8.27;99.03;98173.88;107870;1269;22657;-78
2023/10/27 02:03:26;;;;;;;27.90;9.20;;;;;;;8.21;98.92;98168.17;108053;1269;25312;-78
2023/10/27 02:05:54;;;;;;;23.70;9.00;;;;;;;8.15;98.92;98168.91;108229;1266;22520;-78
2023/10/27 02:08:22;;;;;;;25.00;9.10;;;;;;;8.10;98.89;98167.02;108135;1267;24302;-78
2023/10/27 02:10:50;;;;;;;25.80;9.80;;;;;;;8.05;98.85;98164.45;108111;1270;25303;-78
2023/10/27 02:13:18;;;;;;;28.10;10.60;;;;;;;7.99;98.80;98163.36;110846;1270;22431;-78
2023/10/27 02:15:49;;;;;;;31.40;11.10;;;;;;;7.95;99.06;98156.22;110903;1270;22238;-78
2023/10/27 02:18:17;;;;;;;27.50;10.30;;;;;;;7.91;98.81;98159.27;110887;1268;22364;-79
2023/10/27 02:20:48;;;;;;;27.40;10.50;;;;;;;7.87;98.91;98154.73;110891;1270;22442;-79
2023/10/27 02:23:16;;;;;;;26.80;8.80;;;;;;;7.83;98.74;98156.27;110919;1270;23076;-79
2023/10/27 02:25:44;;;;;;;24.80;9.00;;;;;;;7.79;98.67;98155.06;110919;1270;22624;-78
2023/10/27 02:28:12;;;;;;;20.30;7.30;;;;;;;7.74;98.49;98156.66;110920;1270;22332;-78
2023/10/27 02:30:40;;;;;;;24.50;8.20;;;;;;;7.69;98.44;98152.27;110901;1270;22204;-78
2023/10/27 02:33:08;;;;;;;19.70;7.50;;;;;;;7.64;98.36;98152.09;110932;1270;22528;-79
2023/10/27 02:35:36;;;;;;;19.20;8.00;;;;;;;7.59;98.42;98153.00;110931;1270;22588;-78
2023/10/27 02:38:04;;;;;;;21.00;5.90;;;;;;;7.55;98.51;98152.80;110889;1270;22977;-78
2023/10/27 02:40:34;;;;;;;16.30;5.20;;;;;;;7.52;98.49;98154.43;110897;1270;22226;-79
2023/10/27 02:43:04;;;;;;;14.80;4.80;;;;;;;7.48;98.53;98155.81;110900;1270;22923;-78
2023/10/27 02:45:32;;;;;;;16.30;4.80;;;;;;;7.45;98.63;98154.50;110931;1270;22215;-79
2023/10/27 02:48:00;;;;;;;18.10;5.60;;;;;;;7.43;98.46;98156.92;110905;1266;22995;-78
2023/10/27 02:50:28;;;;;;;15.00;5.10;;;;;;;7.39;98.42;98156.89;110917;1268;22279;-78
2023/10/27 02:52:56;;;;;;;15.30;5.20;;;;;;;7.35;98.25;98161.74;110858;1271;22282;-79
2023/10/27 02:55:24;;;;;;;17.50;5.20;;;;;;;7.31;98.28;98157.90;110839;1271;22354;-79
2023/10/27 02:57:52;;;;;;;14.50;4.70;;;;;;;7.27;98.18;98157.80;110899;1270;22312;-78
2023/10/27 03:00:21;;;;;;;15.90;5.70;;;;;;;7.23;98.28;98162.97;110916;1270;22368;-79
2023/10/27 03:02:50;;;;;;;15.20;5.30;;;;;;;7.18;98.35;98163.83;110861;1269;22390;-79
2023/10/27 03:05:18;;;;;;;19.60;4.30;;;;;;;7.16;98.34;98163.46;110941;1270;22330;-78
2023/10/27 03:07:46;;;;;;;12.70;4.00;;;;;;;7.13;98.14;98169.98;110886;1269;22452;-79
2023/10/27 03:10:15;;;;;;;18.60;5.60;;;;;;;7.10;98.13;98175.54;110926;1269;22410;-79
2023/10/27 03:12:43;;;;;;;15.10;4.60;;;;;;;7.08;98.21;98176.39;110915;1270;22410;-79
2023/10/27 03:15:11;;;;;;;12.80;4.30;;;;;;;7.05;98.36;98172.46;110931;1270;22337;-79
2023/10/27 03:17:39;;;;;;;14.80;4.30;;;;;;;7.04;98.37;98169.98;110888;1263;22480;-77
2023/10/27 03:20:09;;;;;;;16.60;5.00;;;;;;;7.03;98.48;98167.88;110924;1269;22643;-77
2023/10/27 03:22:37;;;;;;;15.10;5.50;;;;;;;7.02;98.76;98166.81;110904;1270;22927;-78
2023/10/27 03:25:07;;;;;;;14.10;4.30;;;;;;;7.02;99.04;98170.50;110863;1267;22282;-77
2023/10/27 03:27:35;;;;;;;18.20;4.50;;;;;;;7.02;99.06;98172.02;110918;1270;22214;-78
2023/10/27 03:30:04;;;;;;;13.90;4.10;;;;;;;7.00;98.94;98171.15;110853;1263;22640;-78
2023/10/27 03:32:32;;;;;;;16.60;4.60;;;;;;;6.99;98.89;98168.23;110906;1270;22209;-77
2023/10/27 03:35:00;;;;;;;14.50;4.20;;;;;;;6.97;98.80;98170.14;110862;1263;22175;-78
2023/10/27 03:37:28;;;;;;;15.20;4.50;;;;;;;6.95;98.86;98163.73;110870;1264;23530;-78
2023/10/27 03:39:57;;;;;;;14.90;4.50;;;;;;;6.95;98.93;98161.61;110900;1264;22469;-77
2023/10/27 03:42:25;;;;;;;15.50;3.70;;;;;;;6.93;98.75;98157.02;110860;1269;22332;-75
2023/10/27 03:44:53;;;;;;;15.50;3.70;;;;;;;6.90;98.76;98158.14;110854;1270;22436;-78
2023/10/27 03:47:21;;;;;;;11.50;3.00;;;;;;;6.86;98.44;98157.53;110901;1271;23035;-78
2023/10/27 03:49:49;;;;;;;11.70;3.60;;;;;;;6.84;98.56;98154.05;110889;1270;22233;-78
2023/10/27 03:52:17;;;;;;;14.80;4.00;;;;;;;6.83;98.73;98153.70;110868;1270;23069;-78
2023/10/27 03:54:45;;;;;;;13.70;4.00;;;;;;;6.80;98.51;98152.38;110900;1263;23294;-78
2023/10/27 03:57:14;;;;;;;15.10;5.50;;;;;;;6.77;98.41;98152.04;110892;1264;22229;-78
2023/10/27 03:59:42;;;;;;;16.50;5.00;;;;;;;6.75;98.49;98154.25;110913;1269;22231;-78
2023/10/27 04:02:10;;;;;;;17.80;4.60;;;;;;;6.73;98.39;98156.41;110909;1270;22182;-78
2023/10/27 04:04:38;;;;;;;15.40;4.70;;;;;;;6.70;98.38;98158.32;110878;1263;22343;-78
2023/10/27 04:07:07;;;;;;;14.20;4.60;;;;;;;6.69;98.50;98158.42;110904;1268;22458;-78
2023/10/27 04:09:35;;;;;;;13.80;4.90;;;;;;;6.67;98.54;98155.80;110677;1267;22405;-78
2023/10/27 04:12:07;;;;;;;16.20;5.20;;;;;;;6.65;98.49;98159.98;110724;1269;22426;-78
2023/10/27 04:14:35;;;;;;;18.70;5.80;;;;;;;6.62;98.47;98155.48;110821;1267;22227;-78
2023/10/27 04:17:04;;;;;;;19.50;5.90;;;;;;;6.60;98.54;98158.31;110839;1270;23101;-78
2023/10/27 04:19:32;;;;;;;16.90;6.60;;;;;;;6.58;98.62;98146.52;110839;1270;22386;-80
2023/10/27 04:22:01;;;;;;;13.90;5.00;;;;;;;6.57;98.67;98141.13;110872;1263;22329;-82
2023/10/27 04:24:29;;;;;;;20.60;5.30;;;;;;;6.56;98.78;98144.55;110914;1270;22275;-82
2023/10/27 04:26:57;;;;;;;18.00;5.40;;;;;;;6.56;98.93;98146.07;110918;1264;22314;-82
2023/10/27 04:29:26;;;;;;;14.20;4.90;;;;;;;6.56;99.10;98146.63;110892;1263;23090;-77
2023/10/27 04:31:54;;;;;;;17.50;5.40;;;;;;;6.57;99.23;98149.29;110699;1260;22442;-77
2023/10/27 04:34:22;;;;;;;20.90;5.60;;;;;;;6.58;99.21;98147.44;110914;1269;22248;-77
2023/10/27 04:36:50;;;;;;;18.30;5.20;;;;;;;6.57;99.22;98149.70;110941;1270;22370;-77
2023/10/27 04:39:18;;;;;;;16.70;4.70;;;;;;;6.56;99.39;98144.09;110932;1270;22365;-77
2023/10/27 04:41:48;;;;;;;18.50;5.30;;;;;;;6.56;99.31;98146.83;110923;1270;22452;-77
2023/10/27 04:44:22;;;;;;;13.50;4.80;;;;;;;6.56;99.27;98146.76;110892;1270;22435;-77
2023/10/27 04:46:51;;;;;;;18.50;5.10;;;;;;;6.55;99.24;98147.21;111055;1270;22206;-77
2023/10/27 04:49:19;;;;;;;19.20;5.50;;;;;;;6.56;99.71;98139.06;111041;1263;22298;-77
2023/10/27 04:51:47;;;;;;;16.30;4.50;;;;;;;6.58;99.44;98139.86;110922;1267;22547;-77
2023/10/27 04:54:15;;;;;;;17.50;4.40;;;;;;;6.58;99.30;98142.48;110865;1270;22326;-77
2023/10/27 04:56:43;;;;;;;13.90;4.10;;;;;;;6.54;99.28;98143.18;110913;1270;22362;-77
2023/10/27 04:59:11;;;;;;;19.50;5.00;;;;;;;6.52;99.25;98143.34;110879;1270;22944;-77
2023/10/27 05:01:39;;;;;;;17.00;4.90;;;;;;;6.51;99.21;98143.14;110849;1270;23394;-77
2023/10/27 05:04:08;;;;;;;16.30;4.40;;;;;;;6.50;99.17;98138.75;110916;1269;22284;-77
2023/10/27 05:06:35;;;;;;;15.00;4.60;;;;;;;6.48;99.17;98131.59;110935;1270;22170;-77
2023/10/27 05:09:04;;;;;;;17.50;3.70;;;;;;;6.49;99.67;98126.30;110937;1270;23419;-77
2023/10/27 05:11:32;;;;;;;16.60;4.30;;;;;;;6.52;100.00;98121.36;110862;1270;22228;-77
2023/10/27 05:14:00;;;;;;;17.60;3.80;;;;;;;6.52;99.81;98121.67;110921;1270;22165;-77
2023/10/27 05:16:28;;;;;;;14.90;3.80;;;;;;;6.51;99.84;98119.19;110896;1269;22472;-77
2023/10/27 05:18:56;;;;;;;16.40;5.00;;;;;;;6.51;99.94;98117.54;110910;1270;22220;-77
2023/10/27 05:21:26;;;;;;;17.50;4.10;;;;;;;6.52;99.92;98117.77;110897;1270;23047;-77
2023/10/27 05:23:56;;;;;;;13.90;4.00;;;;;;;6.51;99.85;98120.36;110914;1270;22609;-77
2023/10/27 05:26:25;;;;;;;13.40;3.50;;;;;;;6.50;99.83;98121.55;110902;1263;22239;-76
2023/10/27 05:28:54;;;;;;;12.50;4.00;;;;;;;6.51;99.99;98122.48;110920;1270;23549;-78
2023/10/27 05:31:22;;;;;;;16.00;3.90;;;;;;;6.52;100.00;98120.77;110924;1270;22159;-78
2023/10/27 05:33:50;;;;;;;16.40;4.50;;;;;;;6.53;100.00;98121.11;110899;1270;22319;-77
2023/10/27 05:36:19;;;;;;;13.90;3.80;;;;;;;6.53;100.00;98125.14;110888;1266;22240;-76
2023/10/27 05:38:47;;;;;;;12.60;3.80;;;;;;;6.53;100.00;98121.02;110962;1269;22801;-76
2023/10/27 05:41:15;;;;;;;15.00;4.10;;;;;;;6.54;100.00;98115.21;110891;1270;22351;-76
2023/10/27 05:43:43;;;;;;;20.50;6.20;;;;;;;6.54;100.00;98117.95;110911;1270;22920;-77
2023/10/27 05:46:13;;;;;;;21.70;6.80;;;;;;;6.59;100.00;98120.86;110895;1270;23068;-77
2023/10/27 05:48:41;;;;;;;20.90;5.30;;;;;;;6.63;100.00;98125.00;110911;1270;22247;-76
2023/10/27 05:51:10;;;;;;;20.10;6.10;;;;;;;6.64;100.00;98130.61;110897;1264;22225;-76
2023/10/27 05:53:38;;;;;;;18.10;5.10;;;;;;;6.64;100.00;98133.94;110914;1270;22344;-77
2023/10/27 05:56:06;;;;;;;17.30;5.00;;;;;;;6.65;100.00;98132.36;110905;1270;22277;-76
2023/10/27 05:58:34;;;;;;;16.60;5.10;;;;;;;6.69;100.00;98129.54;110872;1270;22141;-77
2023/10/27 06:01:03;;;;;;;16.40;4.30;;;;;;;6.71;100.00;98130.55;110863;1250;22277;-77
2023/10/27 06:03:31;;;;;;;17.40;4.70;;;;;;;6.74;100.00;98126.52;110868;1270;22194;-76
2023/10/27 06:05:59;;;;;;;15.00;4.10;;;;;;;6.75;100.00;98121.07;110879;1270;23042;-77
2023/10/27 06:08:27;;;;;;;17.00;5.90;;;;;;;6.77;100.00;98116.98;110883;1270;22259;-76
2023/10/27 06:10:55;;;;;;;14.40;4.60;;;;;;;6.78;100.00;98113.45;110873;1270;22180;-76
2023/10/27 06:13:23;;;;;;;14.90;4.80;;;;;;;6.80;100.00;98106.95;110908;1270;22439;-76
2023/10/27 06:15:51;;;;;;;26.50;5.90;;;;;;;6.82;100.00;98106.14;110944;1270;22414;-77
2023/10/27 06:18:20;;;;;;;20.40;6.70;;;;;;;6.86;100.00;98099.05;110920;1270;22217;-76
2023/10/27 06:20:48;;;;;;;17.60;6.60;;;;;;;6.92;100.00;98097.16;110924;1270;22676;-77
2023/10/27 06:23:16;;;;;;;20.80;6.10;;;;;;;6.97;100.00;98103.87;110651;1270;22544;-76
2023/10/27 06:25:44;;;;;;;20.60;7.60;;;;;;;7.03;100.00;98106.79;110909;1257;22883;-77
2023/10/27 06:28:12;;;;;;;21.30;8.10;;;;;;;7.08;100.00;98108.40;110879;1270;22239;-76
2023/10/27 06:30:40;;;;;;;22.70;7.10;;;;;;;7.11;100.00;98113.14;110933;1270;22867;-76
2023/10/27 06:33:08;;;;;;;23.10;8.70;;;;;;;7.14;100.00;98115.75;110920;1270;22332;-76
2023/10/27 06:35:36;;;;;;;24.50;9.00;;;;;;;7.16;100.00;98120.54;110904;1270;23052;-76
2023/10/27 06:38:04;;;;;;;20.30;7.70;;;;;;;7.18;100.00;98125.08;110943;1267;22357;-77
2023/10/27 06:40:32;;;;;;;24.00;8.10;;;;;;;7.21;100.00;98116.41;110885;1270;23024;-79
2023/10/27 06:43:00;;;;;;;19.80;9.10;;;;;;;7.24;100.00;98116.34;110930;1270;23106;-76
2023/10/27 06:45:28;;;;;;;22.60;8.30;;;;;;;7.28;100.00;98115.88;110922;1270;22198;-76
2023/10/27 06:47:57;;;;;;;20.20;8.20;;;;;;;7.31;100.00;98119.61;110907;1270;22375;-77
2023/10/27 06:50:25;;;;;;;26.10;10.30;;;;;;;7.33;100.00;98116.23;110903;1270;22396;-76
2023/10/27 06:52:53;;;;;;;26.50;10.60;;;;;;;7.35;100.00;98116.82;110901;1270;22150;-76
2023/10/27 06:55:21;;;;;;;27.50;9.20;;;;;;;7.40;100.00;98119.14;110902;1267;22405;-78
2023/10/27 06:57:50;;;;;;;29.60;11.30;;;;;;;7.44;100.00;98122.96;110888;1270;22382;-77
2023/10/27 07:00:19;;;;;;;34.00;13.20;;;;;;;7.49;100.00;98122.99;110911;1267;22322;-77
2023/10/27 07:02:47;;;;;;;39.80;14.30;;;;;;;7.53;100.00;98125.66;110884;1270;23015;-77
2023/10/27 07:05:17;;;;;;;38.10;16.40;;;;;;;7.58;100.00;98126.85;110876;1270;22484;-77
2023/10/27 07:07:45;;;;;;;31.00;13.00;;;;;;;7.62;100.00;98127.29;110954;1270;22186;-78
2023/10/27 07:10:13;;;;;;;27.90;10.80;;;;;;;7.67;100.00;98126.93;110819;1270;23007;-77
2023/10/27 07:12:41;;;;;;;26.80;9.90;;;;;;;7.72;100.00;98126.10;110940;1270;22159;-77
2023/10/27 07:15:11;;;;;;;27.70;11.90;;;;;;;7.76;100.00;98125.64;110898;1270;22156;-77
2023/10/27 07:17:39;;;;;;;29.50;11.80;;;;;;;7.80;100.00;98121.38;110910;1270;22799;-77
2023/10/27 07:20:09;;;;;;;33.20;11.80;;;;;;;7.83;100.00;98117.52;110876;1264;22214;-77
2023/10/27 07:22:37;;;;;;;33.70;11.70;;;;;;;7.88;100.00;98123.46;110897;1264;22259;-77
2023/10/27 07:25:06;;;;;;;29.00;10.80;;;;;;;7.92;100.00;98126.02;110904;1267;22656;-77
2023/10/27 07:27:35;;;;;;;36.50;13.90;;;;;;;7.95;100.00;98131.02;110870;1270;22985;-78
2023/10/27 07:30:04;;;;;;;43.80;17.70;;;;;;;7.99;100.00;98131.09;110883;1270;22436;-77
2023/10/27 07:32:32;;;;;;;50.30;19.10;;;;;;;8.03;100.00;98130.42;110896;1270;22203;-77
2023/10/27 07:35:00;;;;;;;49.70;16.60;;;;;;;8.06;100.00;98126.92;110850;1270;22287;-77
2023/10/27 07:37:28;;;;;;;29.70;10.00;;;;;;;8.10;100.00;98117.20;110888;1270;22199;-78
2023/10/27 07:39:57;;;;;;;25.70;10.80;;;;;;;8.14;100.00;98121.86;110907;1264;22407;-77
2023/10/27 07:42:26;;;;;;;25.20;10.90;;;;;;;8.19;100.00;98112.25;110893;1270;23170;-78
2023/10/27 07:44:56;;;;;;;43.90;22.30;;;;;;;8.25;100.00;98113.42;110870;1270;22606;-77
2023/10/27 07:47:24;;;;;;;64.50;34.60;;;;;;;8.29;100.00;98107.16;110907;1270;22260;-76
2023/10/27 07:49:53;;;;;;;48.30;24.40;;;;;;;8.31;100.00;98105.33;110925;1270;22245;-77
2023/10/27 07:52:21;;;;;;;45.50;22.70;;;;;;;8.33;100.00;98102.84;110873;1270;22376;-76
2023/10/27 07:54:49;;;;;;;28.00;11.50;;;;;;;8.38;100.00;98101.80;110879;1270;22818;-76
2023/10/27 07:57:18;;;;;;;23.00;10.60;;;;;;;8.42;100.00;98093.33;110872;1270;22194;-76
2023/10/27 07:59:46;;;;;;;19.20;8.00;;;;;;;8.47;100.00;98097.54;110915;1270;22236;-76
2023/10/27 08:02:14;;;;;;;21.40;6.70;;;;;;;8.52;100.00;98099.37;110877;1264;22443;-76
2023/10/27 08:04:42;;;;;;;22.20;6.60;;;;;;;8.56;100.00;98100.71;110832;1270;22166;-77
2023/10/27 08:07:10;;;;;;;22.70;9.70;;;;;;;8.58;100.00;98093.11;110890;1270;22332;-77
2023/10/27 08:09:39;;;;;;;26.10;8.40;;;;;;;8.62;100.00;98088.77;110885;1270;22926;-78
2023/10/27 08:12:08;;;;;;;21.60;9.00;;;;;;;8.66;100.00;98085.02;110905;1270;22297;-77
2023/10/27 08:14:36;;;;;;;37.00;16.80;;;;;;;8.71;100.00;98085.43;110893;1267;22900;-76
2023/10/27 08:17:04;;;;;;;35.00;14.80;;;;;;;8.76;100.00;98088.16;110900;1270;23001;-76
2023/10/27 08:19:33;;;;;;;35.20;14.90;;;;;;;8.80;100.00;98088.83;110903;1270;22164;-77
2023/10/27 08:22:02;;;;;;;27.70;12.20;;;;;;;8.85;100.00;98084.95;110927;1270;23131;-77
2023/10/27 08:24:30;;;;;;;23.70;10.90;;;;;;;8.89;100.00;98077.73;110888;1270;22161;-76
2023/10/27 08:26:58;;;;;;;19.90;8.50;;;;;;;8.94;100.00;98071.45;110917;1270;22394;-76
2023/10/27 08:29:26;;;;;;;22.90;8.90;;;;;;;8.98;100.00;98073.74;110919;1260;22289;-76
2023/10/27 08:31:54;;;;;;;21.90;8.40;;;;;;;9.03;100.00;98074.83;110922;1270;22217;-78
2023/10/27 08:34:22;;;;;;;21.80;8.00;;;;;;;9.07;100.00;98078.52;111023;1270;22226;-77
2023/10/27 08:36:51;;;;;;;20.30;9.30;;;;;;;9.12;100.00;98076.70;111042;1270;22177;-77
2023/10/27 08:39:20;;;;;;;26.60;9.60;;;;;;;9.16;100.00;98081.02;110916;1270;22178;-76
2023/10/27 08:41:49;;;;;;;22.60;9.60;;;;;;;9.22;100.00;98087.75;110869;1270;22226;-76
2023/10/27 08:44:18;;;;;;;23.60;9.80;;;;;;;9.27;100.00;98086.27;110917;1270;23113;-77
2023/10/27 08:46:47;;;;;;;21.30;8.80;;;;;;;9.33;100.00;98088.39;110892;1264;23008;-76
2023/10/27 08:49:17;;;;;;;24.40;10.30;;;;;;;9.39;100.00;98086.19;110873;1270;22342;-77
2023/10/27 08:51:46;;;;;;;25.90;10.80;;;;;;;9.45;100.00;98084.87;110929;1270;22165;-77
2023/10/27 08:54:14;;;;;;;25.40;10.40;;;;;;;9.50;100.00;98081.41;110942;1270;22408;-77
2023/10/27 08:56:42;;;;;;;25.10;11.30;;;;;;;9.54;100.00;98079.99;110867;1270;22199;-77
2023/10/27 08:59:14;;;;;;;23.90;10.10;;;;;;;9.59;100.00;98080.86;110914;1270;22169;-76
2023/10/27 09:01:43;;;;;;;19.30;8.20;;;;;;;9.62;100.00;98079.40;110912;1270;22422;-77
2023/10/27 09:04:13;;;;;;;18.00;8.00;;;;;;;9.65;100.00;98081.52;110895;1270;23068;-77
2023/10/27 09:06:42;;;;;;;21.70;7.50;;;;;;;9.69;100.00;98082.41;110890;1270;22008;-77
2023/10/27 09:09:14;;;;;;;21.10;7.20;;;;;;;9.72;100.00;98078.66;110902;1270;22161;-77
2023/10/27 09:11:44;;;;;;;22.70;8.10;;;;;;;9.75;100.00;98071.34;110862;1264;22292;-76
2023/10/27 09:14:19;;;;;;;21.90;8.10;;;;;;;9.80;100.00;98067.93;110939;1270;22184;-77
2023/10/27 09:16:47;;;;;;;20.40;8.00;;;;;;;9.82;100.00;98072.11;110909;1270;22206;-76
2023/10/27 09:19:26;;;;;;;18.00;7.40;;;;;;;9.83;100.00;98073.98;110883;1263;22471;-78
2023/10/27 09:21:54;;;;;;;21.50;8.30;;;;;;;9.85;100.00;98071.61;110878;1270;23035;-76
2023/10/27 09:24:24;;;;;;;22.90;8.40;;;;;;;9.88;100.00;98076.24;110894;1270;22375;-77
2023/10/27 09:26:53;;;;;;;19.20;8.30;;;;;;;9.90;100.00;98074.39;110902;1270;22963;-77
2023/10/27 09:29:21;;;;;;;21.80;9.90;;;;;;;9.92;100.00;98076.73;110930;1270;22818;-77
2023/10/27 09:31:50;;;;;;;23.90;11.00;;;;;;;9.96;100.00;98075.02;110908;1270;22197;-77
2023/10/27 09:34:20;;;;;;;31.50;13.90;;;;;;;9.99;100.00;98073.91;110865;1263;23267;-78
2023/10/27 09:36:51;;;;;;;28.70;12.30;;;;;;;10.02;100.00;98075.91;110899;1270;22224;-77
2023/10/27 09:39:22;;;;;;;23.30;9.90;;;;;;;10.06;100.00;98079.09;110916;1270;22334;-77
2023/10/27 09:41:58;;;;;;;23.30;9.40;;;;;;;10.09;100.00;98074.88;110860;1270;22167;-78
2023/10/27 09:44:34;;;;;;;22.70;10.70;;;;;;;10.13;100.00;98078.27;110931;1263;22481;-77
2023/10/27 09:47:08;;;;;;;25.50;12.40;;;;;;;10.15;100.00;98076.92;110857;1270;22193;-77
2023/10/27 09:49:40;;;;;;;25.90;12.20;;;;;;;10.17;100.00;98073.54;110952;1270;22295;-77
2023/10/27 09:52:10;;;;;;;22.20;10.20;;;;;;;10.18;100.00;98069.41;110879;1270;22954;-77
2023/10/27 09:54:39;;;;;;;23.00;10.40;;;;;;;10.20;100.00;98059.70;110822;1270;22212;-78
2023/10/27 09:57:10;;;;;;;27.60;11.30;;;;;;;10.24;100.00;98051.38;110884;1270;22693;-77
2023/10/27 09:59:38;;;;;;;23.10;9.40;;;;;;;10.27;100.00;98052.36;110958;1270;22866;-78
2023/10/27 10:02:10;;;;;;;18.50;7.80;;;;;;;10.29;100.00;98048.42;110881;1270;22216;-77
2023/10/27 10:05:01;;;;;;;22.80;10.40;;;;;;;10.32;100.00;98043.91;110878;1270;22219;-77
2023/10/27 10:07:31;;;;;;;22.00;9.00;;;;;;;10.37;100.00;98040.40;110872;1270;23086;-78
2023/10/27 10:10:16;;;;;;;19.30;7.10;;;;;;;10.40;100.00;98038.07;110901;1270;22228;-77
2023/10/27 10:13:02;;;;;;;23.00;8.80;;;;;;;10.40;100.00;98043.98;110833;1266;22217;-80
2023/10/27 10:15:31;;;;;;;23.70;9.90;;;;;;;10.44;100.00;98047.55;110851;1270;22147;-77
2023/10/27 10:18:00;;;;;;;23.40;10.20;;;;;;;10.49;100.00;98044.46;110944;1263;22164;-77
2023/10/27 10:20:58;;;;;;;26.70;10.90;;;;;;;10.53;100.00;98040.60;110894;1270;23123;-77
2023/10/27 10:24:13;;;;;;;21.90;9.80;;;;;;;10.58;100.00;98037.07;110220;1277;22613;-78
2023/10/27 10:27:12;;;;;;;20.30;8.60;;;;;;;10.62;100.00;98033.65;110214;1277;23113;-78
2023/10/27 10:29:40;;;;;;;16.10;6.60;;;;;;;10.66;100.00;98031.40;110232;1277;22190;-77
2023/10/27 10:32:30;;;;;;;17.90;7.40;;;;;;;10.68;100.00;98030.32;110236;1276;22384;-78
2023/10/27 10:35:24;;;;;;;21.60;7.70;;;;;;;10.70;100.00;98025.45;110219;1277;22190;-78
2023/10/27 10:37:53;;;;;;;17.60;7.40;;;;;;;10.74;100.00;98024.73;109806;1279;22967;-78
2023/10/27 10:40:27;;;;;;;21.10;8.30;;;;;;;10.77;100.00;98025.13;109835;1283;22232;-78
2023/10/27 10:43:20;;;;;;;18.70;7.40;;;;;;;10.80;100.00;98026.69;109865;1276;22967;-78
2023/10/27 10:45:50;;;;;;;18.40;7.00;;;;;;;10.83;100.00;98025.33;109829;1282;23396;-78
2023/10/27 10:48:19;;;;;;;15.70;6.60;;;;;;;10.86;100.00;98018.94;109831;1282;22508;-77
2023/10/27 10:50:48;;;;;;;29.20;7.70;;;;;;;10.89;100.00;98018.94;109820;1282;23012;-78
2023/10/27 10:53:17;;;;;;;;;;;;;;;10.91;100.00;98011.29;109848;1282;22439;-79
2023/10/27 10:55:46;;;;;;;19.40;7.60;;;;;;;10.93;100.00;98008.55;109855;1280;23084;-79
2023/10/27 10:58:22;;;;;;;17.50;7.30;;;;;;;10.95;100.00;98006.13;110073;1276;22223;-77
2023/10/27 11:00:51;;;;;;;22.50;8.80;;;;;;;10.97;100.00;98006.60;110253;1277;22323;-78
2023/10/27 11:03:21;;;;;;;22.10;6.90;;;;;;;11.00;100.00;97998.68;110242;1277;22190;-78
2023/10/27 11:05:52;;;;;;;19.40;7.60;;;;;;;11.03;100.00;97999.63;110226;1277;22223;-78
2023/10/27 11:08:27;;;;;;;21.20;8.00;;;;;;;11.05;100.00;98000.61;110224;1276;23224;-77
2023/10/27 11:11:06;;;;;;;18.00;7.20;;;;;;;11.07;100.00;97996.55;110231;1256;22354;-78
2023/10/27 11:13:40;;;;;;;24.00;11.00;;;;;;;11.09;100.00;97995.88;110215;1277;22424;-78
2023/10/27 11:16:14;;;;;;;21.90;9.20;;;;;;;11.10;100.00;97995.45;110815;1270;22745;-77
2023/10/27 11:18:43;;;;;;;18.50;8.80;;;;;;;11.08;100.00;97996.04;110912;1270;22359;-78
2023/10/27 11:21:16;;;;;;;22.20;8.20;;;;;;;11.07;100.00;97994.88;110875;1263;22885;-78
2023/10/27 11:23:45;;;;;;;22.50;8.00;;;;;;;11.09;100.00;97998.78;110916;1270;22152;-78
2023/10/27 11:26:16;;;;;;;18.90;7.00;;;;;;;11.10;100.00;98000.31;110892;1270;22360;-80
2023/10/27 11:28:44;;;;;;;;;;;;;;;11.13;100.00;98002.33;110909;1270;22442;-77